sensor_id;sensor_type;location;lat;lon;timestamp;pressure;altitude;pressure_sealevel;temperature;humidity
19596;BME280;9945;46.010;8.946;2022-09-30T00:01:46;95970.25;;;13.21;nan
19596;BME280;9945;46.010;8.946;2022-09-30T00:04:17;95961.16;;;13.17;nan
19596;BME280;9945;46.010;8.946;2022-09-30T00:06:44;95955.28;;;13.15;nan
19596;BME280;9945;46.010;8.946;2022-09-30T00:09:12;95959.75;;;13.21;nan
19596;BME280;9945;46.010;8.946;2022-09-30T00:11:39;95964.44;;;13.26;nan
19596;BME280;9945;46.010;8.946;2022-09-30T00:14:11;95965.63;;;13.30;nan
19596;BME280;9945;46.010;8.946;2022-09-30T00:16:39;95969.28;;;13.36;nan
19596;BME280;9945;46.010;8.946;2022-09-30T00:19:06;95962.22;;;13.36;nan
19596;BME280;9945;46.010;8.946;2022-09-30T00:21:34;95959.22;;;13.39;nan
19596;BME280;9945;46.010;8.946;2022-09-30T00:24:02;95960.63;;;13.35;nan
19596;BME280;9945;46.010;8.946;2022-09-30T00:26:30;95966.47;;;13.37;nan
19596;BME280;9945;46.010;8.946;2022-09-30T00:28:58;95964.84;;;13.36;nan
19596;BME280;9945;46.010;8.946;2022-09-30T00:31:27;95964.81;;;13.30;nan
19596;BME280;9945;46.010;8.946;2022-09-30T00:33:54;95959.34;;;13.24;nan
19596;BME280;9945;46.010;8.946;2022-09-30T00:36:37;95964.78;;;13.16;nan
19596;BME280;9945;46.010;8.946;2022-09-30T00:39:06;95979.88;;;13.08;nan
19596;BME280;9945;46.010;8.946;2022-09-30T00:41:34;95983.91;;;13.10;nan
19596;BME280;9945;46.010;8.946;2022-09-30T00:46:43;95970.72;;;13.04;nan
19596;BME280;9945;46.010;8.946;2022-09-30T00:49:12;95976.44;;;13.07;nan
19596;BME280;9945;46.010;8.946;2022-09-30T00:51:47;95978.44;;;13.05;nan
19596;BME280;9945;46.010;8.946;2022-09-30T00:54:20;95982.22;;;12.96;nan
19596;BME280;9945;46.010;8.946;2022-09-30T00:56:49;95987.09;;;12.99;nan
19596;BME280;9945;46.010;8.946;2022-09-30T00:59:20;95990.34;;;13.01;nan
19596;BME280;9945;46.010;8.946;2022-09-30T01:01:50;95999.78;;;12.96;nan
19596;BME280;9945;46.010;8.946;2022-09-30T01:04:19;96011.06;;;12.89;nan
19596;BME280;9945;46.010;8.946;2022-09-30T01:06:50;96012.31;;;12.94;nan
19596;BME280;9945;46.010;8.946;2022-09-30T01:09:17;96016.56;;;12.95;nan
19596;BME280;9945;46.010;8.946;2022-09-30T01:11:45;96028.88;;;12.94;nan
19596;BME280;9945;46.010;8.946;2022-09-30T01:14:15;96033.31;;;12.94;nan
19596;BME280;9945;46.010;8.946;2022-09-30T01:16:54;96034.38;;;12.99;nan
19596;BME280;9945;46.010;8.946;2022-09-30T01:19:49;96033.13;;;12.95;nan
19596;BME280;9945;46.010;8.946;2022-09-30T01:22:35;96051.16;;;12.98;nan
19596;BME280;9945;46.010;8.946;2022-09-30T01:25:16;96047.94;;;13.03;nan
19596;BME280;9945;46.010;8.946;2022-09-30T01:28:17;96048.38;;;13.06;nan
19596;BME280;9945;46.010;8.946;2022-09-30T01:31:17;96040.72;;;13.11;nan
19596;BME280;9945;46.010;8.946;2022-09-30T01:33:53;96045.63;;;13.14;nan
19596;BME280;9945;46.010;8.946;2022-09-30T01:36:34;96047.88;;;13.17;nan
19596;BME280;9945;46.010;8.946;2022-09-30T01:39:19;96052.53;;;13.22;nan
19596;BME280;9945;46.010;8.946;2022-09-30T01:41:51;96055.16;;;13.22;nan
19596;BME280;9945;46.010;8.946;2022-09-30T01:44:29;96056.00;;;13.22;nan
19596;BME280;9945;46.010;8.946;2022-09-30T01:47:06;96058.81;;;13.21;nan
19596;BME280;9945;46.010;8.946;2022-09-30T01:49:41;96050.13;;;13.27;nan
19596;BME280;9945;46.010;8.946;2022-09-30T01:52:12;96056.22;;;13.27;nan
19596;BME280;9945;46.010;8.946;2022-09-30T01:54:45;96055.84;;;13.31;nan
19596;BME280;9945;46.010;8.946;2022-09-30T01:57:19;96061.53;;;13.34;nan
19596;BME280;9945;46.010;8.946;2022-09-30T01:59:51;96058.50;;;13.37;nan
19596;BME280;9945;46.010;8.946;2022-09-30T02:02:24;96057.13;;;13.41;nan
19596;BME280;9945;46.010;8.946;2022-09-30T02:04:56;96062.38;;;13.41;nan
19596;BME280;9945;46.010;8.946;2022-09-30T02:07:29;96064.59;;;13.44;nan
19596;BME280;9945;46.010;8.946;2022-09-30T02:09:59;96068.41;;;13.35;nan
19596;BME280;9945;46.010;8.946;2022-09-30T02:12:32;96062.94;;;13.37;nan
19596;BME280;9945;46.010;8.946;2022-09-30T02:15:04;96063.16;;;13.35;nan
19596;BME280;9945;46.010;8.946;2022-09-30T02:17:38;96065.16;;;13.33;nan
19596;BME280;9945;46.010;8.946;2022-09-30T02:20:12;96070.22;;;13.35;nan
19596;BME280;9945;46.010;8.946;2022-09-30T02:22:43;96070.25;;;13.41;nan
19596;BME280;9945;46.010;8.946;2022-09-30T02:25:16;96075.34;;;13.43;nan
19596;BME280;9945;46.010;8.946;2022-09-30T02:27:48;96074.31;;;13.44;nan
19596;BME280;9945;46.010;8.946;2022-09-30T02:30:17;96078.38;;;13.46;nan
19596;BME280;9945;46.010;8.946;2022-09-30T02:32:48;96080.78;;;13.41;nan
19596;BME280;9945;46.010;8.946;2022-09-30T02:35:20;96078.78;;;13.43;nan
19596;BME280;9945;46.010;8.946;2022-09-30T02:37:51;96081.00;;;13.46;nan
19596;BME280;9945;46.010;8.946;2022-09-30T02:40:23;96080.16;;;13.39;nan
19596;BME280;9945;46.010;8.946;2022-09-30T02:42:53;96077.91;;;13.36;nan
19596;BME280;9945;46.010;8.946;2022-09-30T02:45:21;96073.88;;;13.40;nan
19596;BME280;9945;46.010;8.946;2022-09-30T02:48:08;96074.09;;;13.45;nan
19596;BME280;9945;46.010;8.946;2022-09-30T02:50:42;96073.09;;;13.46;nan
19596;BME280;9945;46.010;8.946;2022-09-30T02:53:18;96070.47;;;13.46;nan
19596;BME280;9945;46.010;8.946;2022-09-30T02:56:03;96071.25;;;13.40;nan
19596;BME280;9945;46.010;8.946;2022-09-30T02:58:33;96081.41;;;13.43;nan
19596;BME280;9945;46.010;8.946;2022-09-30T03:01:03;96079.81;;;13.49;nan
19596;BME280;9945;46.010;8.946;2022-09-30T03:03:34;96082.44;;;13.49;nan
19596;BME280;9945;46.010;8.946;2022-09-30T03:06:03;96068.47;;;13.48;nan
19596;BME280;9945;46.010;8.946;2022-09-30T03:08:30;96069.50;;;13.54;nan
19596;BME280;9945;46.010;8.946;2022-09-30T03:10:57;96068.31;;;13.56;nan
19596;BME280;9945;46.010;8.946;2022-09-30T03:13:42;96073.38;;;13.58;nan
19596;BME280;9945;46.010;8.946;2022-09-30T03:16:21;96080.47;;;13.57;nan
19596;BME280;9945;46.010;8.946;2022-09-30T03:19:08;96069.75;;;13.59;nan
19596;BME280;9945;46.010;8.946;2022-09-30T03:21:53;96067.94;;;13.59;nan
19596;BME280;9945;46.010;8.946;2022-09-30T03:24:50;96075.38;;;13.56;nan
19596;BME280;9945;46.010;8.946;2022-09-30T03:27:25;96079.03;;;13.55;nan
19596;BME280;9945;46.010;8.946;2022-09-30T03:30:01;96075.56;;;13.54;nan
19596;BME280;9945;46.010;8.946;2022-09-30T03:32:38;96082.47;;;13.55;nan
19596;BME280;9945;46.010;8.946;2022-09-30T03:35:16;96078.63;;;13.58;nan
19596;BME280;9945;46.010;8.946;2022-09-30T03:37:56;96090.78;;;13.59;nan
19596;BME280;9945;46.010;8.946;2022-09-30T03:40:30;96097.44;;;13.55;nan
19596;BME280;9945;46.010;8.946;2022-09-30T03:43:04;96105.88;;;13.44;nan
19596;BME280;9945;46.010;8.946;2022-09-30T03:45:36;96117.16;;;13.38;nan
19596;BME280;9945;46.010;8.946;2022-09-30T03:48:07;96121.84;;;13.42;nan
19596;BME280;9945;46.010;8.946;2022-09-30T03:50:39;96123.22;;;13.38;nan
19596;BME280;9945;46.010;8.946;2022-09-30T03:53:08;96141.91;;;13.22;nan
19596;BME280;9945;46.010;8.946;2022-09-30T03:55:44;96153.19;;;13.16;nan
19596;BME280;9945;46.010;8.946;2022-09-30T03:58:14;96157.63;;;13.15;nan
19596;BME280;9945;46.010;8.946;2022-09-30T04:00:46;96172.78;;;13.13;nan
19596;BME280;9945;46.010;8.946;2022-09-30T04:03:13;96169.88;;;13.08;nan
19596;BME280;9945;46.010;8.946;2022-09-30T04:05:41;96184.84;;;13.08;nan
19596;BME280;9945;46.010;8.946;2022-09-30T04:08:08;96184.38;;;13.04;nan
19596;BME280;9945;46.010;8.946;2022-09-30T04:10:35;96187.06;;;13.11;nan
19596;BME280;9945;46.010;8.946;2022-09-30T04:13:02;96197.06;;;13.15;nan
19596;BME280;9945;46.010;8.946;2022-09-30T04:15:29;96198.69;;;13.16;nan
19596;BME280;9945;46.010;8.946;2022-09-30T04:17:57;96192.13;;;13.12;nan
19596;BME280;9945;46.010;8.946;2022-09-30T04:20:24;96190.31;;;13.13;nan
19596;BME280;9945;46.010;8.946;2022-09-30T04:22:56;96205.19;;;13.20;nan
19596;BME280;9945;46.010;8.946;2022-09-30T04:25:23;96216.78;;;13.26;nan
19596;BME280;9945;46.010;8.946;2022-09-30T04:27:49;96216.38;;;13.29;nan
19596;BME280;9945;46.010;8.946;2022-09-30T04:30:16;96217.81;;;13.32;nan
19596;BME280;9945;46.010;8.946;2022-09-30T04:32:44;96227.53;;;13.31;nan
19596;BME280;9945;46.010;8.946;2022-09-30T04:35:11;96227.53;;;13.31;nan
19596;BME280;9945;46.010;8.946;2022-09-30T04:37:41;96231.59;;;13.34;nan
19596;BME280;9945;46.010;8.946;2022-09-30T04:40:10;96224.75;;;13.39;nan
19596;BME280;9945;46.010;8.946;2022-09-30T04:42:37;96240.53;;;13.39;nan
19596;BME280;9945;46.010;8.946;2022-09-30T04:45:06;96239.53;;;13.40;nan
19596;BME280;9945;46.010;8.946;2022-09-30T04:47:34;96231.81;;;13.39;nan
19596;BME280;9945;46.010;8.946;2022-09-30T04:50:01;96229.38;;;13.37;nan
19596;BME280;9945;46.010;8.946;2022-09-30T04:52:27;96245.56;;;13.34;nan
19596;BME280;9945;46.010;8.946;2022-09-30T04:54:54;96246.09;;;13.30;nan
19596;BME280;9945;46.010;8.946;2022-09-30T04:57:24;96246.56;;;13.33;nan
19596;BME280;9945;46.010;8.946;2022-09-30T04:59:51;96249.56;;;13.30;nan
19596;BME280;9945;46.010;8.946;2022-09-30T05:02:18;96253.81;;;13.31;nan
19596;BME280;9945;46.010;8.946;2022-09-30T05:04:45;96261.06;;;13.29;nan
19596;BME280;9945;46.010;8.946;2022-09-30T05:07:12;96254.63;;;13.32;nan
19596;BME280;9945;46.010;8.946;2022-09-30T05:09:39;96260.69;;;13.32;nan
19596;BME280;9945;46.010;8.946;2022-09-30T05:12:06;96259.13;;;13.38;nan
19596;BME280;9945;46.010;8.946;2022-09-30T05:14:34;96261.75;;;13.38;nan
19596;BME280;9945;46.010;8.946;2022-09-30T05:17:01;96274.59;;;13.26;nan
19596;BME280;9945;46.010;8.946;2022-09-30T05:19:28;96278.41;;;13.23;nan
19596;BME280;9945;46.010;8.946;2022-09-30T05:21:55;96286.31;;;13.23;nan
19596;BME280;9945;46.010;8.946;2022-09-30T05:24:22;96286.03;;;13.18;nan
19596;BME280;9945;46.010;8.946;2022-09-30T05:26:49;96291.50;;;13.17;nan
19596;BME280;9945;46.010;8.946;2022-09-30T05:29:16;96295.13;;;13.16;nan
19596;BME280;9945;46.010;8.946;2022-09-30T05:31:45;96298.09;;;13.13;nan
19596;BME280;9945;46.010;8.946;2022-09-30T05:34:11;96297.94;;;13.14;nan
19596;BME280;9945;46.010;8.946;2022-09-30T05:36:41;96308.16;;;13.09;nan
19596;BME280;9945;46.010;8.946;2022-09-30T05:39:08;96308.28;;;13.01;nan
19596;BME280;9945;46.010;8.946;2022-09-30T05:41:35;96315.97;;;13.03;nan
19596;BME280;9945;46.010;8.946;2022-09-30T05:44:03;96324.28;;;13.06;nan
19596;BME280;9945;46.010;8.946;2022-09-30T05:46:30;96328.91;;;13.04;nan
19596;BME280;9945;46.010;8.946;2022-09-30T05:48:58;96337.44;;;13.06;nan
19596;BME280;9945;46.010;8.946;2022-09-30T05:51:25;96338.88;;;13.09;nan
19596;BME280;9945;46.010;8.946;2022-09-30T05:53:52;96334.16;;;13.04;nan
19596;BME280;9945;46.010;8.946;2022-09-30T05:56:19;96334.81;;;13.06;nan
19596;BME280;9945;46.010;8.946;2022-09-30T05:58:46;96332.00;;;13.08;nan
19596;BME280;9945;46.010;8.946;2022-09-30T06:01:15;96344.69;;;13.04;nan
19596;BME280;9945;46.010;8.946;2022-09-30T06:03:42;96344.97;;;13.09;nan
19596;BME280;9945;46.010;8.946;2022-09-30T06:06:12;96342.94;;;13.11;nan
19596;BME280;9945;46.010;8.946;2022-09-30T06:08:39;96348.00;;;13.13;nan
19596;BME280;9945;46.010;8.946;2022-09-30T06:11:09;96345.97;;;13.08;nan
19596;BME280;9945;46.010;8.946;2022-09-30T06:13:37;96341.06;;;13.05;nan
19596;BME280;9945;46.010;8.946;2022-09-30T06:16:05;96350.41;;;13.08;nan
19596;BME280;9945;46.010;8.946;2022-09-30T06:18:32;96353.66;;;13.10;nan
19596;BME280;9945;46.010;8.946;2022-09-30T06:21:01;96354.84;;;13.07;nan
19596;BME280;9945;46.010;8.946;2022-09-30T06:23:31;96364.53;;;13.07;nan
19596;BME280;9945;46.010;8.946;2022-09-30T06:25:59;96362.72;;;13.07;nan
19596;BME280;9945;46.010;8.946;2022-09-30T06:28:27;96366.59;;;13.11;nan
19596;BME280;9945;46.010;8.946;2022-09-30T06:30:54;96365.28;;;13.15;nan
19596;BME280;9945;46.010;8.946;2022-09-30T06:33:21;96364.44;;;13.15;nan
19596;BME280;9945;46.010;8.946;2022-09-30T06:35:49;96366.97;;;13.08;nan
19596;BME280;9945;46.010;8.946;2022-09-30T06:38:16;96380.47;;;13.05;nan
19596;BME280;9945;46.010;8.946;2022-09-30T06:40:45;96386.56;;;13.06;nan
19596;BME280;9945;46.010;8.946;2022-09-30T06:43:14;96388.53;;;13.04;nan
19596;BME280;9945;46.010;8.946;2022-09-30T06:45:41;96391.34;;;13.02;nan
19596;BME280;9945;46.010;8.946;2022-09-30T06:48:08;96388.00;;;13.08;nan
19596;BME280;9945;46.010;8.946;2022-09-30T06:50:35;96399.25;;;13.17;nan
19596;BME280;9945;46.010;8.946;2022-09-30T06:53:05;96393.06;;;13.24;nan
19596;BME280;9945;46.010;8.946;2022-09-30T06:56:11;96392.09;;;13.25;nan
19596;BME280;9945;46.010;8.946;2022-09-30T06:58:39;96395.41;;;13.34;nan
19596;BME280;9945;46.010;8.946;2022-09-30T07:01:07;96394.47;;;13.42;nan
19596;BME280;9945;46.010;8.946;2022-09-30T07:03:35;96394.31;;;13.43;nan
19596;BME280;9945;46.010;8.946;2022-09-30T07:06:04;96400.63;;;13.49;nan
19596;BME280;9945;46.010;8.946;2022-09-30T07:08:33;96402.69;;;13.53;nan
19596;BME280;9945;46.010;8.946;2022-09-30T07:11:01;96411.84;;;13.57;nan
19596;BME280;9945;46.010;8.946;2022-09-30T07:13:30;96418.91;;;13.57;nan
19596;BME280;9945;46.010;8.946;2022-09-30T07:16:00;96421.91;;;13.54;nan
19596;BME280;9945;46.010;8.946;2022-09-30T07:18:27;96418.22;;;13.48;nan
19596;BME280;9945;46.010;8.946;2022-09-30T07:20:55;96419.16;;;13.41;nan
19596;BME280;9945;46.010;8.946;2022-09-30T07:23:23;96416.44;;;13.34;nan
19596;BME280;9945;46.010;8.946;2022-09-30T07:25:51;96431.13;;;13.29;nan
19596;BME280;9945;46.010;8.946;2022-09-30T07:28:22;96432.75;;;13.30;nan
19596;BME280;9945;46.010;8.946;2022-09-30T07:30:53;96430.94;;;13.30;nan
19596;BME280;9945;46.010;8.946;2022-09-30T07:33:22;96440.22;;;13.26;nan
19596;BME280;9945;46.010;8.946;2022-09-30T07:35:51;96443.44;;;13.28;nan
19596;BME280;9945;46.010;8.946;2022-09-30T07:38:19;96444.84;;;13.24;nan
19596;BME280;9945;46.010;8.946;2022-09-30T07:40:54;96445.19;;;13.21;nan
19596;BME280;9945;46.010;8.946;2022-09-30T07:43:23;96460.53;;;13.17;nan
19596;BME280;9945;46.010;8.946;2022-09-30T07:45:50;96460.31;;;13.19;nan
19596;BME280;9945;46.010;8.946;2022-09-30T07:48:21;96462.06;;;13.27;nan
19596;BME280;9945;46.010;8.946;2022-09-30T07:51:13;96475.53;;;13.38;nan
19596;BME280;9945;46.010;8.946;2022-09-30T07:53:41;96478.63;;;13.42;nan
19596;BME280;9945;46.010;8.946;2022-09-30T07:56:09;96493.91;;;13.53;nan
19596;BME280;9945;46.010;8.946;2022-09-30T07:58:37;96494.44;;;13.63;nan
19596;BME280;9945;46.010;8.946;2022-09-30T08:01:04;96492.91;;;13.69;nan
19596;BME280;9945;46.010;8.946;2022-09-30T08:03:33;96492.34;;;13.73;nan
19596;BME280;9945;46.010;8.946;2022-09-30T08:06:04;96502.94;;;13.80;nan
19596;BME280;9945;46.010;8.946;2022-09-30T08:08:31;96505.97;;;13.77;nan
19596;BME280;9945;46.010;8.946;2022-09-30T08:10:59;96506.03;;;13.83;nan
19596;BME280;9945;46.010;8.946;2022-09-30T08:13:25;96500.19;;;13.88;nan
19596;BME280;9945;46.010;8.946;2022-09-30T08:15:53;96497.13;;;13.84;nan
19596;BME280;9945;46.010;8.946;2022-09-30T08:18:20;96499.38;;;13.87;nan
19596;BME280;9945;46.010;8.946;2022-09-30T08:20:48;96496.13;;;13.85;nan
19596;BME280;9945;46.010;8.946;2022-09-30T08:23:15;96499.81;;;13.91;nan
19596;BME280;9945;46.010;8.946;2022-09-30T08:25:42;96494.56;;;13.91;nan
19596;BME280;9945;46.010;8.946;2022-09-30T08:28:09;96501.00;;;13.88;nan
19596;BME280;9945;46.010;8.946;2022-09-30T08:30:36;96516.97;;;13.87;nan
19596;BME280;9945;46.010;8.946;2022-09-30T08:33:04;96514.97;;;13.89;nan
19596;BME280;9945;46.010;8.946;2022-09-30T08:35:31;96525.78;;;13.94;nan
19596;BME280;9945;46.010;8.946;2022-09-30T08:38:01;96521.69;;;13.91;nan
19596;BME280;9945;46.010;8.946;2022-09-30T08:40:31;96520.75;;;13.99;nan
19596;BME280;9945;46.010;8.946;2022-09-30T08:43:20;96529.13;;;14.02;nan
19596;BME280;9945;46.010;8.946;2022-09-30T08:45:54;96519.13;;;13.98;nan
19596;BME280;9945;46.010;8.946;2022-09-30T08:48:34;96512.88;;;13.99;nan
19596;BME280;9945;46.010;8.946;2022-09-30T08:51:14;96531.94;;;14.01;nan
19596;BME280;9945;46.010;8.946;2022-09-30T08:53:47;96535.56;;;14.00;nan
19596;BME280;9945;46.010;8.946;2022-09-30T08:56:20;96537.72;;;13.96;nan
19596;BME280;9945;46.010;8.946;2022-09-30T08:58:52;96548.47;;;13.95;nan
19596;BME280;9945;46.010;8.946;2022-09-30T09:01:27;96558.78;;;13.96;nan
19596;BME280;9945;46.010;8.946;2022-09-30T09:03:56;96559.06;;;14.01;nan
19596;BME280;9945;46.010;8.946;2022-09-30T09:06:27;96571.84;;;14.05;nan
19596;BME280;9945;46.010;8.946;2022-09-30T09:09:14;96583.06;;;14.13;nan
19596;BME280;9945;46.010;8.946;2022-09-30T09:11:58;96578.91;;;14.04;nan
19596;BME280;9945;46.010;8.946;2022-09-30T09:14:45;96584.28;;;13.96;nan
19596;BME280;9945;46.010;8.946;2022-09-30T09:17:31;96581.47;;;13.97;nan
19596;BME280;9945;46.010;8.946;2022-09-30T09:20:11;96593.00;;;13.96;nan
19596;BME280;9945;46.010;8.946;2022-09-30T09:22:40;96599.38;;;14.02;nan
19596;BME280;9945;46.010;8.946;2022-09-30T09:25:12;96592.91;;;14.05;nan
19596;BME280;9945;46.010;8.946;2022-09-30T09:27:45;96602.00;;;14.02;nan
19596;BME280;9945;46.010;8.946;2022-09-30T09:30:18;96612.53;;;14.02;nan
19596;BME280;9945;46.010;8.946;2022-09-30T09:32:50;96616.50;;;13.98;nan
19596;BME280;9945;46.010;8.946;2022-09-30T09:35:27;96615.44;;;13.92;nan
19596;BME280;9945;46.010;8.946;2022-09-30T09:38:01;96627.97;;;13.90;nan
19596;BME280;9945;46.010;8.946;2022-09-30T09:41:01;96631.66;;;13.96;nan
19596;BME280;9945;46.010;8.946;2022-09-30T09:43:38;96631.31;;;13.99;nan
19596;BME280;9945;46.010;8.946;2022-09-30T09:46:12;96625.47;;;14.03;nan
19596;BME280;9945;46.010;8.946;2022-09-30T09:48:41;96632.78;;;14.01;nan
19596;BME280;9945;46.010;8.946;2022-09-30T09:51:13;96626.69;;;14.01;nan
19596;BME280;9945;46.010;8.946;2022-09-30T09:53:48;96631.94;;;14.01;nan
19596;BME280;9945;46.010;8.946;2022-09-30T09:56:19;96645.13;;;14.01;nan
19596;BME280;9945;46.010;8.946;2022-09-30T09:59:07;96650.31;;;13.94;nan
19596;BME280;9945;46.010;8.946;2022-09-30T10:01:37;96662.19;;;13.90;nan
19596;BME280;9945;46.010;8.946;2022-09-30T10:04:22;96668.25;;;13.91;nan
19596;BME280;9945;46.010;8.946;2022-09-30T10:06:53;96677.63;;;13.93;nan
19596;BME280;9945;46.010;8.946;2022-09-30T10:09:28;96676.88;;;13.99;nan
19596;BME280;9945;46.010;8.946;2022-09-30T10:12:23;96666.91;;;13.95;nan
19596;BME280;9945;46.010;8.946;2022-09-30T10:14:57;96657.72;;;13.91;nan
19596;BME280;9945;46.010;8.946;2022-09-30T10:17:26;96661.25;;;13.98;nan
19596;BME280;9945;46.010;8.946;2022-09-30T10:19:59;96664.34;;;13.87;nan
19596;BME280;9945;46.010;8.946;2022-09-30T10:22:28;96669.34;;;13.96;nan
19596;BME280;9945;46.010;8.946;2022-09-30T10:25:18;96669.22;;;14.05;nan
19596;BME280;9945;46.010;8.946;2022-09-30T10:27:53;96676.78;;;14.08;nan
19596;BME280;9945;46.010;8.946;2022-09-30T10:30:35;96681.31;;;13.99;nan
19596;BME280;9945;46.010;8.946;2022-09-30T10:33:11;96674.59;;;13.96;nan
19596;BME280;9945;46.010;8.946;2022-09-30T10:35:51;96668.25;;;13.91;nan
19596;BME280;9945;46.010;8.946;2022-09-30T10:38:19;96672.44;;;13.85;nan
19596;BME280;9945;46.010;8.946;2022-09-30T10:40:48;96681.75;;;13.88;nan
19596;BME280;9945;46.010;8.946;2022-09-30T10:43:20;96689.31;;;13.91;nan
19596;BME280;9945;46.010;8.946;2022-09-30T10:45:49;96694.41;;;13.92;nan
19596;BME280;9945;46.010;8.946;2022-09-30T10:48:21;96694.00;;;13.95;nan
19596;BME280;9945;46.010;8.946;2022-09-30T10:50:49;96696.13;;;13.85;nan
19596;BME280;9945;46.010;8.946;2022-09-30T10:53:20;96706.09;;;13.90;nan
19596;BME280;9945;46.010;8.946;2022-09-30T10:55:49;96702.94;;;13.94;nan
19596;BME280;9945;46.010;8.946;2022-09-30T10:58:24;96697.75;;;14.01;nan
19596;BME280;9945;46.010;8.946;2022-09-30T11:00:59;96705.91;;;14.06;nan
19596;BME280;9945;46.010;8.946;2022-09-30T11:03:34;96692.41;;;14.09;nan
19596;BME280;9945;46.010;8.946;2022-09-30T11:06:03;96694.75;;;14.04;nan
19596;BME280;9945;46.010;8.946;2022-09-30T11:08:36;96684.03;;;14.06;nan
19596;BME280;9945;46.010;8.946;2022-09-30T11:11:10;96685.94;;;13.97;nan
19596;BME280;9945;46.010;8.946;2022-09-30T11:13:45;96697.13;;;13.99;nan
19596;BME280;9945;46.010;8.946;2022-09-30T11:16:22;96697.47;;;13.96;nan
19596;BME280;9945;46.010;8.946;2022-09-30T11:18:54;96706.56;;;13.93;nan
19596;BME280;9945;46.010;8.946;2022-09-30T11:21:28;96717.34;;;13.84;nan
19596;BME280;9945;46.010;8.946;2022-09-30T11:24:01;96720.81;;;13.84;nan
19596;BME280;9945;46.010;8.946;2022-09-30T11:26:39;96719.91;;;13.92;nan
19596;BME280;9945;46.010;8.946;2022-09-30T11:29:22;96712.72;;;13.86;nan
19596;BME280;9945;46.010;8.946;2022-09-30T11:31:59;96711.63;;;13.80;nan
19596;BME280;9945;46.010;8.946;2022-09-30T11:34:35;96707.56;;;13.78;nan
19596;BME280;9945;46.010;8.946;2022-09-30T11:37:15;96705.91;;;13.77;nan
19596;BME280;9945;46.010;8.946;2022-09-30T11:40:00;96712.34;;;13.74;nan
19596;BME280;9945;46.010;8.946;2022-09-30T11:42:33;96721.06;;;13.75;nan
19596;BME280;9945;46.010;8.946;2022-09-30T11:45:20;96722.06;;;13.74;nan
19596;BME280;9945;46.010;8.946;2022-09-30T11:48:07;96716.63;;;13.75;nan
19596;BME280;9945;46.010;8.946;2022-09-30T11:50:51;96721.41;;;13.72;nan
19596;BME280;9945;46.010;8.946;2022-09-30T11:53:33;96709.25;;;13.71;nan
19596;BME280;9945;46.010;8.946;2022-09-30T11:56:31;96711.63;;;13.66;nan
19596;BME280;9945;46.010;8.946;2022-09-30T11:59:06;96719.50;;;13.66;nan
19596;BME280;9945;46.010;8.946;2022-09-30T12:01:42;96717.22;;;13.62;nan
19596;BME280;9945;46.010;8.946;2022-09-30T12:04:13;96722.47;;;13.62;nan
19596;BME280;9945;46.010;8.946;2022-09-30T12:06:45;96718.19;;;13.47;nan
19596;BME280;9945;46.010;8.946;2022-09-30T12:09:19;96720.81;;;13.47;nan
19596;BME280;9945;46.010;8.946;2022-09-30T12:11:54;96729.25;;;13.42;nan
19596;BME280;9945;46.010;8.946;2022-09-30T12:14:26;96726.16;;;13.39;nan
19596;BME280;9945;46.010;8.946;2022-09-30T12:16:59;96722.88;;;13.37;nan
19596;BME280;9945;46.010;8.946;2022-09-30T12:19:31;96723.78;;;13.29;nan
19596;BME280;9945;46.010;8.946;2022-09-30T12:22:04;96724.59;;;13.30;nan
19596;BME280;9945;46.010;8.946;2022-09-30T12:24:35;96720.16;;;13.30;nan
19596;BME280;9945;46.010;8.946;2022-09-30T12:27:03;96719.97;;;13.32;nan
19596;BME280;9945;46.010;8.946;2022-09-30T12:29:34;96729.03;;;13.29;nan
19596;BME280;9945;46.010;8.946;2022-09-30T12:36:00;96730.78;;;13.14;nan
19596;BME280;9945;46.010;8.946;2022-09-30T12:38:46;96731.63;;;13.14;nan
19596;BME280;9945;46.010;8.946;2022-09-30T12:41:31;96728.44;;;13.19;nan
19596;BME280;9945;46.010;8.946;2022-09-30T12:44:24;96731.56;;;13.22;nan
19596;BME280;9945;46.010;8.946;2022-09-30T12:47:08;96730.22;;;13.27;nan
19596;BME280;9945;46.010;8.946;2022-09-30T12:49:41;96736.91;;;13.29;nan
19596;BME280;9945;46.010;8.946;2022-09-30T12:52:12;96731.00;;;13.27;nan
19596;BME280;9945;46.010;8.946;2022-09-30T12:54:42;96734.13;;;13.31;nan
19596;BME280;9945;46.010;8.946;2022-09-30T12:57:17;96739.47;;;13.37;nan
19596;BME280;9945;46.010;8.946;2022-09-30T12:59:51;96734.69;;;13.41;nan
19596;BME280;9945;46.010;8.946;2022-09-30T13:02:35;96742.84;;;13.46;nan
19596;BME280;9945;46.010;8.946;2022-09-30T13:08:21;96745.41;;;13.54;nan
19596;BME280;9945;46.010;8.946;2022-09-30T13:10:56;96744.78;;;13.52;nan
19596;BME280;9945;46.010;8.946;2022-09-30T13:13:25;96747.22;;;13.53;nan
19596;BME280;9945;46.010;8.946;2022-09-30T13:15:54;96740.34;;;13.52;nan
19596;BME280;9945;46.010;8.946;2022-09-30T13:18:58;96753.50;;;13.52;nan
19596;BME280;9945;46.010;8.946;2022-09-30T13:21:25;96764.19;;;13.51;nan
19596;BME280;9945;46.010;8.946;2022-09-30T13:23:55;96769.16;;;13.46;nan
19596;BME280;9945;46.010;8.946;2022-09-30T13:26:44;96766.53;;;13.46;nan
19596;BME280;9945;46.010;8.946;2022-09-30T13:29:45;96771.63;;;13.47;nan
19596;BME280;9945;46.010;8.946;2022-09-30T13:32:30;96772.25;;;13.49;nan
19596;BME280;9945;46.010;8.946;2022-09-30T13:34:58;96763.81;;;13.54;nan
19596;BME280;9945;46.010;8.946;2022-09-30T13:37:38;96766.22;;;13.63;nan
19596;BME280;9945;46.010;8.946;2022-09-30T13:40:24;96773.03;;;13.73;nan
19596;BME280;9945;46.010;8.946;2022-09-30T13:42:54;96776.16;;;13.76;nan
19596;BME280;9945;46.010;8.946;2022-09-30T13:45:29;96775.78;;;13.79;nan
19596;BME280;9945;46.010;8.946;2022-09-30T13:48:04;96770.97;;;13.83;nan
19596;BME280;9945;46.010;8.946;2022-09-30T13:50:43;96777.16;;;13.90;nan
19596;BME280;9945;46.010;8.946;2022-09-30T13:53:15;96780.69;;;13.97;nan
19596;BME280;9945;46.010;8.946;2022-09-30T13:55:49;96780.19;;;14.01;nan
19596;BME280;9945;46.010;8.946;2022-09-30T14:01:38;96784.38;;;14.11;nan
19596;BME280;9945;46.010;8.946;2022-09-30T14:04:25;96792.59;;;14.08;nan
19596;BME280;9945;46.010;8.946;2022-09-30T14:07:06;96786.78;;;14.12;nan
19596;BME280;9945;46.010;8.946;2022-09-30T14:09:49;96790.44;;;14.11;nan
19596;BME280;9945;46.010;8.946;2022-09-30T14:12:33;96797.53;;;14.11;nan
19596;BME280;9945;46.010;8.946;2022-09-30T14:15:40;96802.97;;;14.09;nan
19596;BME280;9945;46.010;8.946;2022-09-30T14:18:32;96803.59;;;14.11;nan